createdAt,value
2023-02-19T00:04:33.674Z,10.77
2023-02-19T00:34:37.169Z,10.93
2023-02-19T01:04:40.521Z,9.67
2023-02-19T01:34:43.612Z,11.90
2023-02-19T02:04:46.630Z,12.93
2023-02-19T02:34:50.075Z,10.67
2023-02-19T03:04:53.013Z,12.40
2023-02-19T03:34:56.196Z,10.53
2023-02-19T04:04:59.962Z,12.00
2023-02-19T04:35:03.464Z,15.37
2023-02-19T05:05:06.372Z,19.03
2023-02-19T05:35:09.828Z,17.40
2023-02-19T06:05:12.793Z,16.63
2023-02-19T06:35:16.116Z,19.57
2023-02-19T07:05:19.509Z,13.80
2023-02-19T07:35:22.903Z,18.07
2023-02-19T08:05:26.222Z,9.33
2023-02-19T08:35:29.759Z,11.50
2023-02-19T09:05:33.355Z,8.97
2023-02-19T09:35:36.716Z,13.03
2023-02-19T10:05:41.128Z,9.13
2023-02-19T10:35:44.000Z,8.37
2023-02-19T11:05:48.189Z,6.20
2023-02-19T11:35:51.020Z,7.50
2023-02-19T12:05:54.736Z,5.30
2023-02-19T12:35:57.608Z,5.40
2023-02-19T13:06:01.122Z,6.87
2023-02-19T13:36:03.963Z,5.17
2023-02-19T14:06:09.239Z,3.97
2023-02-19T14:36:12.317Z,4.17
2023-02-19T15:06:15.399Z,4.47
2023-02-19T15:36:19.370Z,1.77
2023-02-19T16:06:23.002Z,4.10
2023-02-19T16:36:25.941Z,3.00
2023-02-19T17:06:31.661Z,8.45
2023-02-19T17:36:34.623Z,20.40
2023-02-19T18:06:38.501Z,6.87
2023-02-19T18:36:41.678Z,6.48
2023-02-19T19:06:45.575Z,6.63
2023-02-19T19:36:49.099Z,6.13
2023-02-19T20:06:52.926Z,7.83
2023-02-19T20:36:56.284Z,8.00
2023-02-19T21:06:59.378Z,8.60
2023-02-19T21:37:02.956Z,6.90
2023-02-19T22:07:06.701Z,6.33
2023-02-19T22:37:10.243Z,6.55
2023-02-19T23:07:13.161Z,5.83
2023-02-19T23:37:16.606Z,6.10
